createdAt,value
2019-01-12T00:00:03.571Z,6.51
2019-01-12T00:01:03.556Z,6.41
2019-01-12T00:02:03.544Z,6.46
2019-01-12T00:03:03.580Z,6.45
2019-01-12T00:04:03.513Z,6.46
2019-01-12T00:05:03.499Z,6.45
2019-01-12T00:06:03.484Z,6.46
2019-01-12T00:07:03.471Z,6.51
2019-01-12T00:08:03.455Z,6.49
2019-01-12T00:09:03.441Z,6.46
2019-01-12T00:10:03.426Z,6.42
2019-01-12T00:11:03.411Z,6.48
2019-01-12T00:12:03.398Z,6.45
2019-01-12T00:13:03.384Z,6.51
2019-01-12T00:14:03.368Z,6.51
2019-01-12T00:15:03.354Z,6.41
2019-01-12T00:16:03.340Z,6.42
2019-01-12T00:17:03.326Z,6.44
2019-01-12T00:18:03.311Z,6.42
2019-01-12T00:19:03.298Z,6.45
2019-01-12T00:20:03.283Z,6.41
2019-01-12T00:21:03.268Z,6.45
2019-01-12T00:22:03.253Z,6.45
2019-01-12T00:23:03.242Z,6.45
2019-01-12T00:24:03.225Z,6.45
2019-01-12T00:25:03.211Z,6.45
2019-01-12T00:26:03.204Z,6.46
2019-01-12T00:27:03.181Z,6.36
2019-01-12T00:28:03.168Z,6.38
2019-01-12T00:29:03.153Z,6.38
2019-01-12T00:30:03.139Z,6.42
2019-01-12T00:31:03.125Z,6.42
2019-01-12T00:32:03.111Z,6.33
2019-01-12T00:33:03.096Z,6.31
2019-01-12T00:34:03.081Z,6.39
2019-01-12T00:35:03.066Z,6.30
2019-01-12T00:36:03.052Z,6.26
2019-01-12T00:37:03.037Z,6.30
2019-01-12T00:38:03.024Z,6.28
2019-01-12T00:39:03.059Z,6.31
2019-01-12T00:40:02.995Z,6.24
2019-01-12T00:41:02.980Z,6.31
2019-01-12T00:42:02.965Z,6.31
2019-01-12T00:43:02.951Z,6.20
2019-01-12T00:44:02.937Z,6.20
2019-01-12T00:45:02.923Z,6.26
2019-01-12T00:46:02.907Z,6.22
2019-01-12T00:47:02.895Z,6.26
2019-01-12T00:48:02.879Z,6.22
2019-01-12T00:49:02.865Z,6.22
2019-01-12T00:50:02.849Z,6.19
2019-01-12T00:51:02.837Z,6.19
2019-01-12T00:52:02.821Z,6.24
2019-01-12T00:53:02.807Z,6.19
2019-01-12T00:54:02.791Z,6.22
2019-01-12T00:55:02.780Z,6.20
2019-01-12T00:56:02.766Z,6.27
2019-01-12T00:57:02.750Z,6.28
2019-01-12T00:58:02.735Z,6.27
2019-01-12T00:59:02.720Z,6.20
2019-01-12T01:00:02.707Z,6.26
2019-01-12T01:01:02.695Z,6.30
2019-01-12T01:02:02.686Z,6.27
2019-01-12T01:03:02.666Z,6.38
2019-01-12T01:04:02.649Z,6.36
2019-01-12T01:05:02.636Z,6.35
2019-01-12T01:06:02.619Z,6.35
2019-01-12T01:07:02.606Z,6.42
2019-01-12T01:08:02.591Z,6.28
2019-01-12T01:09:02.578Z,6.38
2019-01-12T01:10:02.564Z,6.38
2019-01-12T01:11:02.548Z,6.31
2019-01-12T01:12:02.535Z,6.24
2019-01-12T01:13:02.522Z,6.31
2019-01-12T01:14:02.506Z,6.26
2019-01-12T01:15:02.491Z,6.30
2019-01-12T01:16:02.477Z,6.28
2019-01-12T01:17:02.468Z,6.35
2019-01-12T01:18:02.449Z,6.27
2019-01-12T01:19:02.434Z,6.27
2019-01-12T01:20:02.422Z,6.30
2019-01-12T01:21:02.407Z,6.28
2019-01-12T01:22:02.392Z,6.35
2019-01-12T01:23:02.378Z,6.22
2019-01-12T01:24:02.364Z,6.24
2019-01-12T01:25:02.350Z,6.28
2019-01-12T01:26:02.337Z,6.26
2019-01-12T01:27:02.321Z,6.26
2019-01-12T01:28:02.307Z,6.27
2019-01-12T01:29:02.293Z,6.31
2019-01-12T01:30:02.278Z,6.30
2019-01-12T01:31:02.264Z,6.30
2019-01-12T01:32:02.253Z,6.27
2019-01-12T01:33:02.236Z,6.31
2019-01-12T01:34:02.220Z,6.28
2019-01-12T01:35:02.207Z,6.35
2019-01-12T01:36:02.193Z,6.20
2019-01-12T01:37:02.185Z,6.20
2019-01-12T01:38:02.164Z,6.35
2019-01-12T01:39:02.149Z,6.28
2019-01-12T01:40:02.144Z,6.28
2019-01-12T01:41:02.121Z,6.31
2019-01-12T01:42:02.106Z,6.36
2019-01-12T01:43:02.092Z,6.35
2019-01-12T01:44:02.078Z,6.35
2019-01-12T01:45:02.064Z,6.28
2019-01-12T01:46:02.049Z,6.27
2019-01-12T01:47:02.034Z,6.22
2019-01-12T01:48:02.022Z,6.26
2019-01-12T01:49:02.007Z,6.36
2019-01-12T01:50:01.999Z,6.22
2019-01-12T01:51:01.977Z,6.22
2019-01-12T01:52:01.963Z,6.20
2019-01-12T01:53:01.950Z,6.17
2019-01-12T01:54:01.934Z,6.17
2019-01-12T01:55:01.920Z,6.22
2019-01-12T01:56:01.907Z,6.22
2019-01-12T01:57:01.893Z,6.22
2019-01-12T01:58:01.877Z,6.20
2019-01-12T01:59:01.863Z,6.22
2019-01-12T02:00:01.850Z,6.31
2019-01-12T02:01:01.836Z,6.26
2019-01-12T02:02:01.821Z,6.30
2019-01-12T02:03:01.807Z,6.28
2019-01-12T02:04:01.793Z,6.30
2019-01-12T02:05:01.780Z,6.19
2019-01-12T02:06:01.764Z,6.28
2019-01-12T02:07:01.751Z,6.24
2019-01-12T02:08:02.537Z,6.20
2019-01-12T02:09:01.726Z,6.22
2019-01-12T02:10:01.707Z,6.20
2019-01-12T02:11:01.702Z,6.22
2019-01-12T02:12:01.679Z,6.24
2019-01-12T02:13:01.665Z,6.17
2019-01-12T02:14:01.649Z,6.24
2019-01-12T02:15:01.639Z,6.16
2019-01-12T02:16:01.622Z,6.12
2019-01-12T02:17:01.609Z,6.16
2019-01-12T02:18:01.593Z,6.08
2019-01-12T02:19:01.578Z,6.08
2019-01-12T02:20:01.565Z,6.08
2019-01-12T02:21:01.551Z,6.11
2019-01-12T02:22:01.535Z,6.11
2019-01-12T02:23:01.522Z,6.08
2019-01-12T02:24:01.507Z,6.16
2019-01-12T02:25:01.644Z,6.11
2019-01-12T02:26:01.477Z,6.08
2019-01-12T02:27:01.463Z,6.17
2019-01-12T02:28:01.450Z,6.09
2019-01-12T02:29:01.435Z,6.07
2019-01-12T02:30:01.425Z,6.02
2019-01-12T02:31:01.406Z,6.09
2019-01-12T02:32:01.392Z,6.12
2019-01-12T02:33:01.379Z,6.12
2019-01-12T02:34:01.364Z,6.12
2019-01-12T02:35:01.349Z,6.11
2019-01-12T02:36:01.334Z,6.11
2019-01-12T02:37:01.321Z,6.12
2019-01-12T02:38:01.310Z,6.16
2019-01-12T02:39:01.292Z,6.12
2019-01-12T02:40:01.488Z,6.09
2019-01-12T02:41:01.265Z,6.12
2019-01-12T02:42:01.275Z,6.08
2019-01-12T02:43:01.235Z,6.05
2019-01-12T02:44:01.220Z,6.17
2019-01-12T02:45:01.206Z,6.12
2019-01-12T02:46:01.190Z,6.17
2019-01-12T02:47:01.177Z,6.11
2019-01-12T02:48:01.161Z,6.12
2019-01-12T02:49:01.147Z,6.12
2019-01-12T02:50:01.133Z,6.14
2019-01-12T02:51:01.167Z,6.12
2019-01-12T02:52:01.104Z,6.12
2019-01-12T02:53:01.089Z,6.12
2019-01-12T02:54:01.075Z,6.08
2019-01-12T02:55:08.582Z,6.19
2019-01-12T02:56:01.093Z,6.12
2019-01-12T02:57:01.032Z,6.09
2019-01-12T02:58:01.017Z,6.12
2019-01-12T02:59:01.003Z,6.12
2019-01-12T03:00:00.994Z,6.08
2019-01-12T03:01:00.974Z,6.11
2019-01-12T03:02:00.959Z,6.16
2019-01-12T03:03:00.945Z,6.12
2019-01-12T03:04:00.933Z,6.12
2019-01-12T03:05:00.920Z,6.11
2019-01-12T03:06:00.902Z,6.16
2019-01-12T03:07:00.888Z,6.24
2019-01-12T03:08:00.873Z,6.08
2019-01-12T03:09:00.859Z,6.14
2019-01-12T03:10:01.147Z,6.17
2019-01-12T03:11:00.829Z,6.05
2019-01-12T03:12:00.816Z,6.09
2019-01-12T03:13:00.801Z,6.16
2019-01-12T03:14:00.788Z,6.09
2019-01-12T03:15:00.798Z,6.19
2019-01-12T03:16:00.773Z,6.12
2019-01-12T03:17:00.747Z,6.12
2019-01-12T03:18:00.728Z,6.14
2019-01-12T03:19:00.714Z,6.09
2019-01-12T03:20:00.883Z,6.11
2019-01-12T03:21:00.685Z,6.16
2019-01-12T03:22:00.673Z,5.97
2019-01-12T03:23:00.661Z,6.02
2019-01-12T03:24:00.644Z,5.99
2019-01-12T03:25:00.627Z,6.02
2019-01-12T03:26:00.611Z,5.98
2019-01-12T03:27:00.597Z,5.98
2019-01-12T03:28:00.595Z,6.01
2019-01-12T03:29:00.567Z,5.87
2019-01-12T03:30:00.553Z,5.94
2019-01-12T03:31:00.542Z,5.99
2019-01-12T03:32:00.526Z,5.93
2019-01-12T03:33:00.513Z,5.98
2019-01-12T03:34:00.499Z,5.98
2019-01-12T03:35:00.478Z,5.97
2019-01-12T03:36:00.464Z,5.93
2019-01-12T03:37:00.449Z,5.98
2019-01-12T03:38:00.432Z,5.94
2019-01-12T03:39:00.418Z,5.98
2019-01-12T03:40:00.403Z,5.97
2019-01-12T03:41:00.389Z,6.01
2019-01-12T03:42:00.374Z,5.94
2019-01-12T03:43:00.360Z,5.98
2019-01-12T03:44:00.345Z,5.94
2019-01-12T03:45:00.330Z,5.97
2019-01-12T03:46:00.314Z,5.93
2019-01-12T03:47:00.301Z,6.02
2019-01-12T03:48:01.086Z,5.99
2019-01-12T04:11:59.932Z,5.98
2019-01-12T04:12:59.921Z,5.90
2019-01-12T04:13:59.902Z,5.91
2019-01-12T04:14:59.887Z,5.84
2019-01-12T04:15:59.873Z,5.87
2019-01-12T04:16:59.858Z,5.86
2019-01-12T04:17:59.845Z,5.82
2019-01-12T04:18:59.828Z,5.82
2019-01-12T04:19:59.814Z,5.79
2019-01-12T04:20:59.800Z,5.86
2019-01-12T04:21:59.784Z,5.84
2019-01-12T04:22:59.769Z,5.84
2019-01-12T04:23:59.755Z,5.76
2019-01-12T04:24:59.740Z,5.73
2019-01-12T04:25:59.724Z,5.75
2019-01-12T04:26:59.713Z,5.73
2019-01-12T04:27:59.695Z,5.75
2019-01-12T04:28:59.680Z,5.72
2019-01-12T04:29:59.665Z,5.61
2019-01-12T04:30:59.660Z,5.61
2019-01-12T04:31:59.636Z,5.72
2019-01-12T04:32:59.621Z,5.72
2019-01-12T04:33:59.607Z,5.72
2019-01-12T04:34:59.591Z,5.69
2019-01-12T04:35:59.576Z,5.69
2019-01-12T04:36:59.561Z,5.71
2019-01-12T04:37:59.545Z,5.71
2019-01-12T04:38:59.532Z,5.66
2019-01-12T04:39:59.516Z,5.68
2019-01-12T04:40:59.502Z,5.72
2019-01-12T04:41:59.486Z,5.64
2019-01-12T04:42:59.478Z,5.75
2019-01-12T04:43:59.457Z,5.69
2019-01-12T04:44:59.443Z,5.75
2019-01-12T04:45:59.431Z,5.72
2019-01-12T04:46:59.412Z,5.72
2019-01-12T04:47:59.397Z,5.61
2019-01-12T04:48:59.383Z,5.72
2019-01-12T04:49:59.375Z,5.76
2019-01-12T04:50:59.353Z,5.79
2019-01-12T04:51:59.338Z,5.76
2019-01-12T04:52:59.323Z,5.59
2019-01-12T04:53:59.324Z,5.75
2019-01-12T04:54:59.298Z,5.71
2019-01-12T04:55:59.281Z,5.66
2019-01-12T04:56:59.265Z,5.72
2019-01-12T04:57:59.249Z,5.71
2019-01-12T04:58:59.235Z,5.66
2019-01-12T04:59:59.224Z,5.66
2019-01-12T05:00:59.215Z,5.68
2019-01-12T05:01:59.190Z,5.66
2019-01-12T05:02:59.230Z,5.65
2019-01-12T05:03:59.164Z,5.64
2019-01-12T05:04:59.149Z,5.66
2019-01-12T05:05:59.131Z,5.64
2019-01-12T05:06:59.118Z,5.56
2019-01-12T05:07:59.103Z,5.57
2019-01-12T05:08:59.088Z,5.59
2019-01-12T05:09:59.074Z,5.56
2019-01-12T05:10:59.057Z,5.59
2019-01-12T05:11:59.043Z,5.57
2019-01-12T05:12:59.034Z,5.54
2019-01-12T05:13:59.012Z,5.62
2019-01-12T05:14:58.999Z,5.62
2019-01-12T05:15:58.983Z,5.57
2019-01-12T05:16:58.968Z,5.57
2019-01-12T05:17:58.952Z,5.50
2019-01-12T05:18:58.940Z,5.66
2019-01-12T05:19:58.923Z,5.59
2019-01-12T05:20:58.910Z,5.57
2019-01-12T05:21:58.893Z,5.57
2019-01-12T05:22:58.879Z,5.54
2019-01-12T05:23:58.864Z,5.53
2019-01-12T05:24:58.849Z,5.62
2019-01-12T05:25:58.833Z,5.56
2019-01-12T05:26:58.819Z,5.57
2019-01-12T05:27:58.805Z,5.54
2019-01-12T05:28:58.794Z,5.56
2019-01-12T05:29:58.775Z,5.51
2019-01-12T05:30:58.760Z,5.50
2019-01-12T05:31:58.752Z,5.56
2019-01-12T05:32:58.730Z,5.61
2019-01-12T05:33:58.715Z,5.53
2019-01-12T05:34:58.701Z,5.54
2019-01-12T05:35:58.686Z,5.59
2019-01-12T05:36:58.673Z,5.64
2019-01-12T05:37:58.657Z,5.59
2019-01-12T05:38:58.643Z,5.56
2019-01-12T05:39:58.634Z,5.56
2019-01-12T05:40:58.615Z,5.56
2019-01-12T05:41:58.596Z,5.54
2019-01-12T05:42:58.588Z,5.61
2019-01-12T05:43:58.570Z,5.57
2019-01-12T05:44:58.553Z,5.54
2019-01-12T05:45:58.537Z,5.51
2019-01-12T05:46:58.523Z,5.50
2019-01-12T05:47:58.510Z,5.57
2019-01-12T05:48:58.497Z,5.48
2019-01-12T05:49:58.478Z,5.62
2019-01-12T05:50:58.469Z,5.61
2019-01-12T05:51:58.449Z,5.56
2019-01-12T05:52:58.434Z,5.50
2019-01-12T05:53:58.472Z,5.59
2019-01-12T05:54:58.404Z,5.61
2019-01-12T05:55:59.273Z,5.53
2019-01-12T05:56:58.377Z,5.56
2019-01-12T05:57:58.360Z,5.57
2019-01-12T05:58:58.344Z,5.56
2019-01-12T05:59:58.330Z,5.61
2019-01-12T06:00:58.317Z,5.59
2019-01-12T06:01:58.300Z,5.61
2019-01-12T06:02:58.285Z,5.62
2019-01-12T06:03:58.271Z,5.54
2019-01-12T06:04:58.256Z,5.65
2019-01-12T06:05:58.240Z,5.57
2019-01-12T06:06:58.226Z,5.57
2019-01-12T06:07:58.212Z,5.62
2019-01-12T06:08:58.197Z,5.56
2019-01-12T06:09:58.181Z,5.65
2019-01-12T06:10:58.166Z,5.50
2019-01-12T06:11:58.153Z,5.62
2019-01-12T06:12:58.137Z,5.54
2019-01-12T06:13:58.122Z,5.57
2019-01-12T06:14:58.107Z,5.56
2019-01-12T06:15:58.093Z,5.56
2019-01-12T06:16:58.078Z,5.54
2019-01-12T06:17:58.062Z,5.64
2019-01-12T06:18:58.050Z,5.65
2019-01-12T06:19:58.033Z,5.54
2019-01-12T06:20:58.019Z,5.57
2019-01-12T06:21:58.006Z,5.65
2019-01-12T06:22:57.988Z,5.64
2019-01-12T06:23:57.974Z,5.61
2019-01-12T06:24:57.959Z,5.62
2019-01-12T06:26:03.879Z,5.64
2019-01-12T06:26:57.929Z,5.65
2019-01-12T06:27:57.914Z,5.62
2019-01-12T06:28:57.900Z,5.68
2019-01-12T06:29:58.804Z,5.59
2019-01-12T06:30:57.870Z,5.65
2019-01-12T06:31:57.855Z,5.68
2019-01-12T06:32:57.841Z,5.59
2019-01-12T06:33:57.832Z,5.62
2019-01-12T06:34:57.810Z,5.66
2019-01-12T06:35:57.803Z,5.71
2019-01-12T06:36:57.782Z,5.64
2019-01-12T06:37:57.775Z,5.68
2019-01-12T06:38:57.750Z,5.66
2019-01-12T06:39:57.735Z,5.62
2019-01-12T06:40:57.722Z,5.66
2019-01-12T06:41:57.706Z,5.61
2019-01-12T06:42:57.698Z,5.64
2019-01-12T06:43:57.678Z,5.59
2019-01-12T06:44:57.662Z,5.66
2019-01-12T06:45:57.646Z,5.66
2019-01-12T06:46:57.631Z,5.66
2019-01-12T06:47:57.618Z,5.64
2019-01-12T06:48:57.601Z,5.65
2019-01-12T06:49:57.586Z,5.68
2019-01-12T06:50:57.571Z,5.65
2019-01-12T06:51:57.558Z,5.64
2019-01-12T06:52:57.542Z,5.71
2019-01-12T06:53:57.526Z,5.65
2019-01-12T06:54:57.512Z,5.61
2019-01-12T06:55:57.496Z,5.69
2019-01-12T06:56:57.482Z,5.66
2019-01-12T06:57:57.466Z,5.65
2019-01-12T06:58:57.451Z,5.66
2019-01-12T06:59:57.438Z,5.68
2019-01-12T07:00:57.422Z,5.65
2019-01-12T07:01:57.406Z,5.64
2019-01-12T07:02:57.393Z,5.69
2019-01-12T07:03:57.377Z,5.65
2019-01-12T07:04:57.362Z,5.71
2019-01-12T07:05:57.347Z,5.61
2019-01-12T07:06:57.332Z,5.68
2019-01-12T07:07:57.317Z,5.64
2019-01-12T07:08:57.302Z,5.64
2019-01-12T07:09:57.288Z,5.68
2019-01-12T07:10:57.272Z,5.65
2019-01-12T07:11:57.257Z,5.62
2019-01-12T07:12:57.243Z,5.66
2019-01-12T07:13:57.227Z,5.71
2019-01-12T07:14:57.211Z,5.68
2019-01-12T07:15:57.197Z,5.61
2019-01-12T07:16:57.182Z,5.65
2019-01-12T07:17:57.166Z,5.68
2019-01-12T07:18:57.202Z,5.72
2019-01-12T07:19:57.137Z,5.65
2019-01-12T07:20:57.123Z,5.64
2019-01-12T07:21:57.107Z,5.61
2019-01-12T07:22:57.093Z,5.66
2019-01-12T07:23:57.077Z,5.59
2019-01-12T07:24:57.063Z,5.65
2019-01-12T07:25:57.047Z,5.59
2019-01-12T07:26:57.032Z,5.57
2019-01-12T07:27:57.017Z,5.66
2019-01-12T07:28:57.002Z,5.65
2019-01-12T07:29:56.987Z,5.65
2019-01-12T07:30:56.972Z,5.69
2019-01-12T07:31:56.960Z,5.69
2019-01-12T07:32:56.945Z,5.68
2019-01-12T07:33:56.927Z,5.64
2019-01-12T07:34:56.915Z,5.68
2019-01-12T07:35:56.899Z,5.59
2019-01-12T07:36:56.883Z,5.59
2019-01-12T07:37:56.868Z,5.61
2019-01-12T07:38:56.857Z,5.65
2019-01-12T07:39:56.839Z,5.59
2019-01-12T07:40:56.824Z,5.57
2019-01-12T07:41:56.808Z,5.61
2019-01-12T07:42:56.794Z,5.66
2019-01-12T07:43:56.780Z,5.61
2019-01-12T07:44:56.765Z,5.57
2019-01-12T07:45:56.749Z,5.54
2019-01-12T07:46:56.734Z,5.71
2019-01-12T07:47:56.719Z,5.54
2019-01-12T07:48:56.705Z,5.61
2019-01-12T07:49:56.690Z,5.68
2019-01-12T07:50:56.674Z,5.59
2019-01-12T07:51:56.660Z,5.59
2019-01-12T07:52:56.646Z,5.62
2019-01-12T07:53:56.633Z,5.68
2019-01-12T07:54:56.614Z,5.65
2019-01-12T07:55:56.600Z,5.71
2019-01-12T07:56:56.585Z,5.66
2019-01-12T07:57:56.570Z,5.68
2019-01-12T07:58:56.555Z,5.65
2019-01-12T07:59:56.539Z,5.65
2019-01-12T08:00:56.525Z,5.65
2019-01-12T08:01:56.510Z,5.66
2019-01-12T08:02:56.495Z,5.65
2019-01-12T08:03:56.480Z,5.66
2019-01-12T08:04:56.465Z,5.64
2019-01-12T08:05:56.450Z,5.62
2019-01-12T08:06:56.436Z,5.65
2019-01-12T08:07:56.421Z,5.62
2019-01-12T08:08:56.407Z,5.65
2019-01-12T08:09:56.390Z,5.66
2019-01-12T08:10:56.375Z,5.66
2019-01-12T08:11:56.361Z,5.71
2019-01-12T08:12:56.348Z,5.66
2019-01-12T08:13:56.330Z,5.68
2019-01-12T08:14:56.365Z,5.61
2019-01-12T08:15:56.300Z,5.71
2019-01-12T08:16:56.286Z,5.65
2019-01-12T08:17:56.274Z,5.64
2019-01-12T08:18:56.258Z,5.75
2019-01-12T08:19:56.240Z,5.73
2019-01-12T08:20:56.226Z,5.65
2019-01-12T08:21:56.211Z,5.73
2019-01-12T08:22:56.196Z,5.76
2019-01-12T08:23:56.181Z,5.69
2019-01-12T08:24:56.167Z,5.76
2019-01-12T08:25:56.151Z,5.73
2019-01-12T08:26:56.137Z,5.71
2019-01-12T08:27:56.121Z,5.75
2019-01-12T08:28:56.107Z,5.72
2019-01-12T08:29:56.141Z,5.66
2019-01-12T08:30:56.077Z,5.72
2019-01-12T08:31:56.065Z,5.76
2019-01-12T08:32:56.049Z,5.82
2019-01-12T08:33:56.032Z,5.83
2019-01-12T08:34:56.017Z,5.80
2019-01-12T08:35:56.008Z,5.75
2019-01-12T08:36:55.989Z,5.83
2019-01-12T08:37:55.973Z,5.84
2019-01-12T08:38:55.959Z,5.76
2019-01-12T08:39:55.944Z,5.79
2019-01-12T08:40:55.930Z,5.84
2019-01-12T08:41:55.914Z,5.91
2019-01-12T08:42:55.900Z,5.83
2019-01-12T08:43:55.885Z,5.80
2019-01-12T08:44:55.871Z,5.86
2019-01-12T08:45:55.856Z,5.86
2019-01-12T08:46:55.842Z,5.82
2019-01-12T08:47:55.827Z,5.84
2019-01-12T08:48:55.814Z,5.84
2019-01-12T08:49:55.797Z,5.80
2019-01-12T08:50:55.782Z,5.83
2019-01-12T08:51:55.768Z,5.83
2019-01-12T08:52:55.754Z,5.86
2019-01-12T08:53:55.738Z,5.84
2019-01-12T08:54:55.723Z,5.84
2019-01-12T08:55:55.710Z,5.86
2019-01-12T08:56:55.695Z,5.87
2019-01-12T08:57:55.682Z,5.87
2019-01-12T08:58:55.665Z,5.91
2019-01-12T08:59:55.651Z,5.90
2019-01-12T09:00:55.638Z,6.02
2019-01-12T09:01:55.621Z,5.93
2019-01-12T09:02:55.655Z,5.91
2019-01-12T09:03:55.592Z,5.89
2019-01-12T09:04:55.582Z,5.94
2019-01-12T09:05:55.565Z,5.90
2019-01-12T09:06:55.548Z,5.93
2019-01-12T09:07:55.534Z,5.82
2019-01-12T09:08:55.519Z,5.87
2019-01-12T09:09:55.504Z,5.87
2019-01-12T09:10:55.491Z,5.93
2019-01-12T09:11:55.475Z,5.94
2019-01-12T09:12:55.511Z,5.89
2019-01-12T09:13:55.445Z,5.89
2019-01-12T09:14:55.432Z,5.87
2019-01-12T09:15:55.419Z,5.89
2019-01-12T09:16:55.406Z,5.89
2019-01-12T09:17:55.387Z,5.98
2019-01-12T09:18:55.373Z,5.97
2019-01-12T09:19:55.359Z,6.01
2019-01-12T09:20:55.344Z,5.94
2019-01-12T09:21:55.329Z,5.91
2019-01-12T09:22:55.315Z,5.91
2019-01-12T09:23:55.300Z,6.02
2019-01-12T09:24:55.287Z,6.02
2019-01-12T09:25:55.270Z,5.94
2019-01-12T09:26:55.256Z,5.98
2019-01-12T09:27:55.242Z,6.04
2019-01-12T09:28:55.228Z,6.02
2019-01-12T09:29:55.213Z,5.99
2019-01-12T09:30:55.198Z,5.98
2019-01-12T09:31:55.188Z,5.99
2019-01-12T09:32:55.171Z,6.01
2019-01-12T09:33:55.155Z,5.91
2019-01-12T09:34:55.141Z,6.01
2019-01-12T09:35:55.126Z,6.01
2019-01-12T09:36:55.112Z,5.97
2019-01-12T09:37:55.098Z,5.94
2019-01-12T09:38:55.083Z,5.98
2019-01-12T09:39:55.069Z,6.04
2019-01-12T09:40:55.055Z,5.99
2019-01-12T09:41:55.042Z,6.05
2019-01-12T09:42:55.025Z,5.98
2019-01-12T09:43:55.011Z,5.98
2019-01-12T09:44:54.997Z,6.04
2019-01-12T09:45:54.982Z,6.08
2019-01-12T09:46:54.968Z,6.11
2019-01-12T09:47:54.954Z,6.08
2019-01-12T09:48:54.940Z,6.11
2019-01-12T09:49:54.925Z,6.11
2019-01-12T09:50:54.910Z,6.11
2019-01-12T09:51:54.898Z,6.07
2019-01-12T09:52:54.882Z,6.12
2019-01-12T09:53:54.917Z,6.14
2019-01-12T09:54:54.856Z,6.20
2019-01-12T09:55:54.839Z,6.08
2019-01-12T09:56:54.825Z,6.12
2019-01-12T09:57:54.810Z,6.12
2019-01-12T09:58:54.795Z,6.04
2019-01-12T09:59:54.782Z,6.07
2019-01-12T10:00:54.768Z,6.08
2019-01-12T10:01:54.752Z,6.08
2019-01-12T10:02:54.738Z,6.05
2019-01-12T10:03:54.723Z,6.20
2019-01-12T10:04:54.709Z,6.19
2019-01-12T10:05:55.308Z,6.20
2019-01-12T10:06:54.682Z,6.17
2019-01-12T10:07:54.666Z,6.24
2019-01-12T10:08:54.655Z,6.22
2019-01-12T10:09:54.638Z,6.27
2019-01-12T10:10:54.622Z,6.22
2019-01-12T10:11:54.608Z,6.19
2019-01-12T10:12:54.594Z,6.20
2019-01-12T10:13:54.578Z,6.12
2019-01-12T10:14:54.565Z,6.20
2019-01-12T10:15:54.550Z,6.19
2019-01-12T10:16:54.536Z,6.24
2019-01-12T10:17:54.521Z,6.20
2019-01-12T10:18:54.506Z,6.27
2019-01-12T10:19:54.493Z,6.35
2019-01-12T10:20:54.480Z,6.39
2019-01-12T10:21:54.463Z,6.39
2019-01-12T10:22:54.449Z,6.30
2019-01-12T10:23:54.435Z,6.35
2019-01-12T10:24:54.421Z,6.35
2019-01-12T10:25:54.407Z,6.35
2019-01-12T10:26:58.559Z,6.33
2019-01-12T10:27:54.377Z,6.31
2019-01-12T10:28:54.363Z,6.30
2019-01-12T10:29:54.348Z,6.35
2019-01-12T10:30:54.334Z,6.28
2019-01-12T10:31:54.320Z,6.33
2019-01-12T10:32:54.306Z,6.33
2019-01-12T10:33:54.290Z,6.36
2019-01-12T10:34:54.277Z,6.39
2019-01-12T10:35:54.263Z,6.31
2019-01-12T10:36:54.248Z,6.33
2019-01-12T10:37:54.234Z,6.42
2019-01-12T10:38:54.219Z,6.46
2019-01-12T10:39:54.208Z,6.33
2019-01-12T10:40:54.191Z,6.41
2019-01-12T10:41:54.176Z,6.44
2019-01-12T10:42:54.163Z,6.45
2019-01-12T10:43:54.151Z,6.39
2019-01-12T10:44:54.134Z,6.46
2019-01-12T10:45:54.119Z,6.42
2019-01-12T10:46:54.105Z,6.48
2019-01-12T10:47:54.091Z,6.59
2019-01-12T10:48:54.077Z,6.69
2019-01-12T10:49:54.064Z,6.67
2019-01-12T10:50:54.048Z,6.63
2019-01-12T10:51:54.034Z,6.57
2019-01-12T10:52:54.020Z,6.57
2019-01-12T10:53:54.005Z,6.60
2019-01-12T10:54:53.994Z,6.62
2019-01-12T10:55:53.978Z,6.62
2019-01-12T10:56:53.963Z,6.57
2019-01-12T10:57:53.948Z,6.48
2019-01-12T10:58:53.935Z,6.51
2019-01-12T10:59:53.922Z,6.56
2019-01-12T11:00:53.907Z,6.63
2019-01-12T11:01:53.892Z,6.62
2019-01-12T11:02:53.879Z,6.66
2019-01-12T11:03:53.865Z,6.66
2019-01-12T11:04:53.851Z,6.57
2019-01-12T11:05:53.836Z,6.72
2019-01-12T11:06:53.823Z,6.57
2019-01-12T11:07:53.809Z,6.62
2019-01-12T11:08:53.795Z,6.64
2019-01-12T11:09:53.781Z,6.64
2019-01-12T11:10:53.766Z,6.62
2019-01-12T11:11:53.753Z,6.70
2019-01-12T11:12:53.738Z,6.67
2019-01-12T11:13:53.724Z,6.69
2019-01-12T11:14:53.710Z,6.64
2019-01-12T11:15:53.696Z,6.72
2019-01-12T11:16:53.685Z,6.57
2019-01-12T11:17:53.667Z,6.62
2019-01-12T11:18:53.654Z,6.67
2019-01-12T11:19:53.980Z,6.57
2019-01-12T11:20:53.626Z,6.60
2019-01-12T11:21:53.611Z,6.74
2019-01-12T11:22:53.597Z,6.69
2019-01-12T11:23:53.583Z,6.67
2019-01-12T11:24:53.569Z,6.69
2019-01-12T11:25:53.556Z,6.69
2019-01-12T11:26:53.541Z,6.74
2019-01-12T11:27:53.527Z,6.74
2019-01-12T11:28:53.514Z,6.85
2019-01-12T11:29:53.498Z,6.77
2019-01-12T11:30:53.484Z,6.78
2019-01-12T11:31:53.470Z,6.78
2019-01-12T11:32:53.457Z,6.89
2019-01-12T11:33:53.442Z,6.84
2019-01-12T11:34:53.479Z,6.89
2019-01-12T11:35:53.416Z,6.92
2019-01-12T11:36:53.401Z,6.81
2019-01-12T11:37:53.386Z,6.88
2019-01-12T11:38:53.373Z,6.82
2019-01-12T11:39:53.359Z,6.77
2019-01-12T11:40:53.346Z,6.70
2019-01-12T11:41:53.331Z,6.67
2019-01-12T11:42:53.360Z,6.66
2019-01-12T11:43:53.304Z,6.59
2019-01-12T11:44:53.290Z,6.54
2019-01-12T11:45:53.275Z,6.54
2019-01-12T11:46:53.265Z,6.56
2019-01-12T11:47:53.248Z,6.51
2019-01-12T11:48:53.235Z,6.51
2019-01-12T11:49:53.219Z,6.42
2019-01-12T11:50:53.206Z,6.41
2019-01-12T11:51:53.192Z,6.38
2019-01-12T11:52:53.177Z,6.44
2019-01-12T11:53:53.163Z,6.38
2019-01-12T11:54:53.149Z,6.38
2019-01-12T11:55:53.135Z,6.35
2019-01-12T11:56:53.122Z,6.35
2019-01-12T11:57:53.106Z,6.28
2019-01-12T11:58:53.093Z,6.35
2019-01-12T11:59:53.079Z,6.41
2019-01-12T12:00:53.064Z,6.44
2019-01-12T12:01:53.050Z,6.44
2019-01-12T12:02:53.036Z,6.41
2019-01-12T12:03:53.022Z,6.42
2019-01-12T12:04:53.008Z,6.41
2019-01-12T12:05:52.993Z,6.41
2019-01-12T12:06:52.983Z,6.39
2019-01-12T12:07:52.966Z,6.46
2019-01-12T12:08:52.952Z,6.44
2019-01-12T12:09:52.936Z,6.42
2019-01-12T12:10:52.922Z,6.41
2019-01-12T12:11:52.908Z,6.44
2019-01-12T12:12:52.894Z,6.38
2019-01-12T12:13:52.879Z,6.35
2019-01-12T12:14:52.865Z,6.31
2019-01-12T12:15:52.901Z,6.31
2019-01-12T12:16:52.836Z,6.26
2019-01-12T12:17:52.821Z,6.19
2019-01-12T12:18:52.807Z,6.26
2019-01-12T12:19:52.793Z,6.22
2019-01-12T12:20:52.779Z,6.26
2019-01-12T12:21:52.794Z,6.19
2019-01-12T12:22:52.749Z,6.26
2019-01-12T12:23:52.735Z,6.24
2019-01-12T12:24:52.723Z,6.20
2019-01-12T12:25:52.707Z,6.27
2019-01-12T12:26:52.694Z,6.24
2019-01-12T12:27:52.677Z,6.22
2019-01-12T12:28:52.663Z,6.26
2019-01-12T12:29:52.647Z,6.27
2019-01-12T12:30:52.635Z,6.20
2019-01-12T12:31:52.620Z,6.17
2019-01-12T12:32:52.609Z,6.24
2019-01-12T12:33:52.590Z,6.27
2019-01-12T12:34:52.575Z,6.12
2019-01-12T12:35:52.564Z,6.19
2019-01-12T12:36:52.546Z,6.24
2019-01-12T12:37:52.806Z,6.17
2019-01-12T12:38:52.517Z,6.20
2019-01-12T12:39:52.502Z,6.24
2019-01-12T12:40:52.488Z,6.22
2019-01-12T12:41:52.473Z,6.24
2019-01-12T12:42:52.458Z,6.16
2019-01-12T12:43:52.444Z,6.24
2019-01-12T12:44:52.434Z,6.19
2019-01-12T12:45:52.415Z,6.17
2019-01-12T12:46:52.399Z,6.28
2019-01-12T12:47:52.385Z,6.33
2019-01-12T12:48:52.371Z,6.20
2019-01-12T12:49:52.355Z,6.27
2019-01-12T12:50:52.348Z,6.28
2019-01-12T12:51:52.351Z,6.35
2019-01-12T12:52:52.313Z,6.35
2019-01-12T12:53:52.298Z,6.36
2019-01-12T12:54:52.282Z,6.33
2019-01-12T12:55:52.318Z,6.36
2019-01-12T12:56:52.256Z,6.30
2019-01-12T12:57:52.238Z,6.33
2019-01-12T12:58:52.225Z,6.35
2019-01-12T12:59:52.209Z,6.31
2019-01-12T13:00:52.195Z,6.35
2019-01-12T13:01:52.179Z,6.38
2019-01-12T13:02:52.165Z,6.35
2019-01-12T13:03:52.151Z,6.30
2019-01-12T13:04:52.136Z,6.30
2019-01-12T13:05:52.121Z,6.35
2019-01-12T13:06:52.106Z,6.39
2019-01-12T13:07:52.092Z,6.35
2019-01-12T13:08:52.077Z,6.28
2019-01-12T13:09:52.062Z,6.39
2019-01-12T13:10:52.048Z,6.38
2019-01-12T13:11:52.033Z,6.46
2019-01-12T13:12:52.018Z,6.44
2019-01-12T13:13:52.007Z,6.41
2019-01-12T13:14:51.988Z,6.44
2019-01-12T13:15:51.975Z,6.41
2019-01-12T13:16:52.010Z,6.44
2019-01-12T13:17:51.946Z,6.41
2019-01-12T13:18:51.929Z,6.38
2019-01-12T13:19:51.915Z,6.44
2019-01-12T13:20:51.904Z,6.39
2019-01-12T13:21:51.884Z,6.44
2019-01-12T13:22:51.870Z,6.41
2019-01-12T13:23:51.856Z,6.46
2019-01-12T13:24:51.841Z,6.41
2019-01-12T13:25:51.825Z,6.41
2019-01-12T13:26:51.811Z,6.44
2019-01-12T13:27:51.797Z,6.41
2019-01-12T13:28:51.782Z,6.42
2019-01-12T13:29:51.769Z,6.49
2019-01-12T13:30:51.752Z,6.44
2019-01-12T13:31:51.737Z,6.42
2019-01-12T13:32:51.725Z,6.39
2019-01-12T13:33:51.707Z,6.45
2019-01-12T13:34:51.692Z,6.44
2019-01-12T13:35:51.679Z,6.46
2019-01-12T13:36:51.663Z,6.41
2019-01-12T13:37:51.647Z,6.42
2019-01-12T13:38:51.632Z,6.44
2019-01-12T13:39:51.618Z,6.45
2019-01-12T13:40:51.604Z,6.41